sensor_id;sensor_type;location;lat;lon;timestamp;P1;durP1;ratioP1;P2;durP2;ratioP2
572;SDS011;271;51.114;13.780;2022-10-29T00:01:37;26.00;;;9.57;;
572;SDS011;271;51.114;13.780;2022-10-29T00:04:04;28.40;;;10.60;;
572;SDS011;271;51.114;13.780;2022-10-29T00:06:33;25.43;;;8.30;;
572;SDS011;271;51.114;13.780;2022-10-29T00:09:00;24.87;;;10.50;;
572;SDS011;271;51.114;13.780;2022-10-29T00:11:27;26.00;;;10.13;;
572;SDS011;271;51.114;13.780;2022-10-29T00:13:55;30.87;;;10.20;;
572;SDS011;271;51.114;13.780;2022-10-29T00:16:25;24.73;;;9.77;;
572;SDS011;271;51.114;13.780;2022-10-29T00:18:54;24.80;;;9.67;;
572;SDS011;271;51.114;13.780;2022-10-29T00:21:23;27.47;;;9.27;;
572;SDS011;271;51.114;13.780;2022-10-29T00:23:53;24.00;;;8.50;;
572;SDS011;271;51.114;13.780;2022-10-29T00:26:20;25.83;;;9.93;;
572;SDS011;271;51.114;13.780;2022-10-29T00:28:50;26.03;;;9.47;;
572;SDS011;271;51.114;13.780;2022-10-29T00:31:18;25.00;;;8.63;;
572;SDS011;271;51.114;13.780;2022-10-29T00:33:48;26.10;;;9.23;;
572;SDS011;271;51.114;13.780;2022-10-29T00:36:17;26.43;;;9.57;;
572;SDS011;271;51.114;13.780;2022-10-29T00:38:47;26.70;;;9.33;;
572;SDS011;271;51.114;13.780;2022-10-29T00:41:16;27.67;;;8.50;;
572;SDS011;271;51.114;13.780;2022-10-29T00:43:47;25.10;;;9.33;;
572;SDS011;271;51.114;13.780;2022-10-29T00:46:15;25.17;;;9.27;;
572;SDS011;271;51.114;13.780;2022-10-29T00:48:48;28.03;;;8.87;;
572;SDS011;271;51.114;13.780;2022-10-29T00:51:18;24.30;;;8.47;;
572;SDS011;271;51.114;13.780;2022-10-29T00:53:46;25.90;;;9.00;;
572;SDS011;271;51.114;13.780;2022-10-29T00:56:20;24.90;;;8.40;;
572;SDS011;271;51.114;13.780;2022-10-29T00:58:49;24.60;;;8.77;;
572;SDS011;271;51.114;13.780;2022-10-29T01:01:17;25.40;;;8.67;;
572;SDS011;271;51.114;13.780;2022-10-29T01:03:44;26.17;;;9.20;;
572;SDS011;271;51.114;13.780;2022-10-29T01:06:12;24.67;;;8.90;;
572;SDS011;271;51.114;13.780;2022-10-29T01:08:40;24.40;;;9.17;;
572;SDS011;271;51.114;13.780;2022-10-29T01:11:09;27.73;;;9.50;;
572;SDS011;271;51.114;13.780;2022-10-29T01:13:52;25.30;;;9.00;;
572;SDS011;271;51.114;13.780;2022-10-29T01:16:31;27.77;;;9.60;;
572;SDS011;271;51.114;13.780;2022-10-29T01:19:09;24.97;;;9.23;;
572;SDS011;271;51.114;13.780;2022-10-29T01:21:40;26.13;;;9.10;;
572;SDS011;271;51.114;13.780;2022-10-29T01:30:35;24.30;;;9.17;;
572;SDS011;271;51.114;13.780;2022-10-29T01:33:29;23.87;;;8.23;;
572;SDS011;271;51.114;13.780;2022-10-29T01:36:05;24.97;;;8.67;;
572;SDS011;271;51.114;13.780;2022-10-29T01:38:41;24.07;;;8.70;;
572;SDS011;271;51.114;13.780;2022-10-29T01:41:18;25.23;;;9.03;;
572;SDS011;271;51.114;13.780;2022-10-29T01:43:52;26.23;;;9.30;;
572;SDS011;271;51.114;13.780;2022-10-29T01:46:23;28.00;;;8.47;;
572;SDS011;271;51.114;13.780;2022-10-29T01:49:01;25.53;;;9.47;;
572;SDS011;271;51.114;13.780;2022-10-29T01:51:32;26.63;;;9.30;;
572;SDS011;271;51.114;13.780;2022-10-29T01:54:01;25.40;;;8.83;;
572;SDS011;271;51.114;13.780;2022-10-29T01:56:33;24.10;;;8.10;;
572;SDS011;271;51.114;13.780;2022-10-29T01:59:00;26.50;;;8.73;;
572;SDS011;271;51.114;13.780;2022-10-29T02:01:40;23.93;;;8.00;;
572;SDS011;271;51.114;13.780;2022-10-29T02:04:27;25.73;;;9.30;;
572;SDS011;271;51.114;13.780;2022-10-29T02:07:11;27.50;;;9.53;;
572;SDS011;271;51.114;13.780;2022-10-29T02:09:48;27.50;;;9.30;;
572;SDS011;271;51.114;13.780;2022-10-29T02:12:21;24.60;;;9.57;;
572;SDS011;271;51.114;13.780;2022-10-29T02:14:52;26.30;;;9.23;;
572;SDS011;271;51.114;13.780;2022-10-29T02:17:22;24.00;;;8.30;;
572;SDS011;271;51.114;13.780;2022-10-29T02:19:51;27.10;;;9.03;;
572;SDS011;271;51.114;13.780;2022-10-29T02:22:19;27.90;;;10.50;;
572;SDS011;271;51.114;13.780;2022-10-29T02:24:46;26.80;;;9.13;;
572;SDS011;271;51.114;13.780;2022-10-29T02:27:13;24.83;;;9.70;;
572;SDS011;271;51.114;13.780;2022-10-29T02:29:40;25.70;;;9.03;;
572;SDS011;271;51.114;13.780;2022-10-29T02:32:07;25.80;;;9.17;;
572;SDS011;271;51.114;13.780;2022-10-29T02:34:34;22.93;;;8.30;;
572;SDS011;271;51.114;13.780;2022-10-29T02:37:03;26.80;;;9.70;;
572;SDS011;271;51.114;13.780;2022-10-29T02:39:30;24.00;;;8.93;;
572;SDS011;271;51.114;13.780;2022-10-29T02:41:57;24.27;;;9.07;;
572;SDS011;271;51.114;13.780;2022-10-29T02:44:24;24.17;;;8.70;;
572;SDS011;271;51.114;13.780;2022-10-29T02:46:52;24.23;;;9.30;;
572;SDS011;271;51.114;13.780;2022-10-29T02:49:19;25.60;;;9.10;;
572;SDS011;271;51.114;13.780;2022-10-29T02:51:46;23.63;;;9.33;;
572;SDS011;271;51.114;13.780;2022-10-29T02:54:16;25.70;;;9.00;;
572;SDS011;271;51.114;13.780;2022-10-29T02:56:43;24.93;;;8.27;;
572;SDS011;271;51.114;13.780;2022-10-29T02:59:10;26.50;;;9.27;;
572;SDS011;271;51.114;13.780;2022-10-29T03:01:37;26.47;;;10.20;;
572;SDS011;271;51.114;13.780;2022-10-29T03:04:04;25.30;;;9.70;;
572;SDS011;271;51.114;13.780;2022-10-29T03:06:32;24.97;;;10.17;;
572;SDS011;271;51.114;13.780;2022-10-29T03:08:59;25.03;;;10.10;;
572;SDS011;271;51.114;13.780;2022-10-29T03:11:27;25.07;;;10.00;;
572;SDS011;271;51.114;13.780;2022-10-29T03:13:55;25.00;;;9.27;;
572;SDS011;271;51.114;13.780;2022-10-29T03:16:22;27.40;;;11.37;;
572;SDS011;271;51.114;13.780;2022-10-29T03:18:49;25.90;;;10.17;;
572;SDS011;271;51.114;13.780;2022-10-29T03:21:16;27.93;;;11.03;;
572;SDS011;271;51.114;13.780;2022-10-29T03:23:43;27.90;;;12.90;;
572;SDS011;271;51.114;13.780;2022-10-29T03:26:11;24.80;;;9.80;;
572;SDS011;271;51.114;13.780;2022-10-29T03:28:39;28.03;;;9.90;;
572;SDS011;271;51.114;13.780;2022-10-29T03:31:06;26.03;;;9.27;;
572;SDS011;271;51.114;13.780;2022-10-29T03:33:34;26.27;;;9.50;;
572;SDS011;271;51.114;13.780;2022-10-29T03:36:02;27.43;;;10.93;;
572;SDS011;271;51.114;13.780;2022-10-29T03:38:31;26.40;;;10.00;;
572;SDS011;271;51.114;13.780;2022-10-29T03:40:58;25.30;;;8.83;;
572;SDS011;271;51.114;13.780;2022-10-29T03:43:25;27.13;;;10.07;;
572;SDS011;271;51.114;13.780;2022-10-29T03:45:54;24.00;;;9.33;;
572;SDS011;271;51.114;13.780;2022-10-29T03:48:23;30.97;;;9.47;;
572;SDS011;271;51.114;13.780;2022-10-29T03:50:54;26.40;;;10.27;;
572;SDS011;271;51.114;13.780;2022-10-29T03:53:22;24.77;;;8.50;;
572;SDS011;271;51.114;13.780;2022-10-29T03:55:49;24.67;;;9.17;;
572;SDS011;271;51.114;13.780;2022-10-29T03:58:17;25.00;;;10.17;;
572;SDS011;271;51.114;13.780;2022-10-29T04:00:51;25.67;;;9.97;;
572;SDS011;271;51.114;13.780;2022-10-29T04:03:21;27.23;;;10.70;;
572;SDS011;271;51.114;13.780;2022-10-29T04:05:48;25.73;;;11.20;;
572;SDS011;271;51.114;13.780;2022-10-29T04:08:15;27.73;;;11.13;;
572;SDS011;271;51.114;13.780;2022-10-29T04:10:43;26.10;;;10.93;;
572;SDS011;271;51.114;13.780;2022-10-29T04:13:11;28.30;;;10.70;;
572;SDS011;271;51.114;13.780;2022-10-29T04:15:39;29.10;;;11.47;;
572;SDS011;271;51.114;13.780;2022-10-29T04:18:08;26.73;;;11.13;;
572;SDS011;271;51.114;13.780;2022-10-29T04:20:36;28.43;;;11.30;;
572;SDS011;271;51.114;13.780;2022-10-29T04:23:04;27.07;;;11.40;;
572;SDS011;271;51.114;13.780;2022-10-29T04:25:32;30.17;;;11.00;;
572;SDS011;271;51.114;13.780;2022-10-29T04:27:59;25.40;;;10.67;;
572;SDS011;271;51.114;13.780;2022-10-29T04:30:26;30.70;;;11.27;;
572;SDS011;271;51.114;13.780;2022-10-29T04:32:56;26.60;;;11.50;;
572;SDS011;271;51.114;13.780;2022-10-29T04:35:26;26.67;;;11.30;;
572;SDS011;271;51.114;13.780;2022-10-29T04:37:54;30.10;;;12.67;;
572;SDS011;271;51.114;13.780;2022-10-29T04:40:21;28.43;;;12.70;;
572;SDS011;271;51.114;13.780;2022-10-29T04:42:49;33.50;;;13.23;;
572;SDS011;271;51.114;13.780;2022-10-29T04:45:17;25.87;;;10.40;;
572;SDS011;271;51.114;13.780;2022-10-29T04:47:44;26.50;;;10.83;;
572;SDS011;271;51.114;13.780;2022-10-29T04:50:11;28.70;;;11.90;;
572;SDS011;271;51.114;13.780;2022-10-29T04:52:40;25.87;;;10.43;;
572;SDS011;271;51.114;13.780;2022-10-29T04:55:07;26.57;;;10.83;;
572;SDS011;271;51.114;13.780;2022-10-29T04:57:35;27.87;;;11.80;;
572;SDS011;271;51.114;13.780;2022-10-29T05:00:02;29.70;;;11.47;;
572;SDS011;271;51.114;13.780;2022-10-29T05:02:30;28.10;;;12.20;;
572;SDS011;271;51.114;13.780;2022-10-29T05:04:57;27.97;;;10.63;;
572;SDS011;271;51.114;13.780;2022-10-29T05:07:24;30.73;;;11.93;;
572;SDS011;271;51.114;13.780;2022-10-29T05:09:53;28.20;;;12.03;;
572;SDS011;271;51.114;13.780;2022-10-29T05:12:20;28.63;;;12.50;;
572;SDS011;271;51.114;13.780;2022-10-29T05:14:47;27.20;;;10.80;;
572;SDS011;271;51.114;13.780;2022-10-29T05:17:14;28.07;;;11.80;;
572;SDS011;271;51.114;13.780;2022-10-29T05:19:41;27.57;;;11.40;;
572;SDS011;271;51.114;13.780;2022-10-29T05:22:09;29.63;;;12.23;;
572;SDS011;271;51.114;13.780;2022-10-29T05:24:36;28.30;;;11.10;;
572;SDS011;271;51.114;13.780;2022-10-29T05:27:05;29.17;;;11.77;;
572;SDS011;271;51.114;13.780;2022-10-29T05:29:33;26.77;;;11.90;;
572;SDS011;271;51.114;13.780;2022-10-29T05:32:00;26.60;;;11.53;;
572;SDS011;271;51.114;13.780;2022-10-29T05:34:27;29.70;;;11.30;;
572;SDS011;271;51.114;13.780;2022-10-29T05:36:54;28.07;;;11.50;;
572;SDS011;271;51.114;13.780;2022-10-29T05:39:22;27.37;;;11.37;;
572;SDS011;271;51.114;13.780;2022-10-29T05:41:49;29.47;;;12.13;;
572;SDS011;271;51.114;13.780;2022-10-29T05:44:18;26.63;;;10.50;;
572;SDS011;271;51.114;13.780;2022-10-29T05:46:47;31.63;;;14.90;;
572;SDS011;271;51.114;13.780;2022-10-29T05:49:14;31.17;;;14.60;;
572;SDS011;271;51.114;13.780;2022-10-29T05:51:41;32.70;;;14.63;;
572;SDS011;271;51.114;13.780;2022-10-29T05:54:08;30.33;;;13.77;;
572;SDS011;271;51.114;13.780;2022-10-29T05:56:35;30.67;;;13.03;;
572;SDS011;271;51.114;13.780;2022-10-29T05:59:03;30.00;;;12.70;;
572;SDS011;271;51.114;13.780;2022-10-29T06:01:31;26.40;;;11.43;;
572;SDS011;271;51.114;13.780;2022-10-29T06:03:58;27.03;;;10.93;;
572;SDS011;271;51.114;13.780;2022-10-29T06:06:25;29.40;;;13.17;;
572;SDS011;271;51.114;13.780;2022-10-29T06:08:53;29.50;;;13.07;;
572;SDS011;271;51.114;13.780;2022-10-29T06:11:20;29.03;;;13.13;;
572;SDS011;271;51.114;13.780;2022-10-29T06:13:47;31.87;;;11.87;;
572;SDS011;271;51.114;13.780;2022-10-29T06:16:14;25.80;;;11.10;;
572;SDS011;271;51.114;13.780;2022-10-29T06:18:43;29.30;;;12.60;;
572;SDS011;271;51.114;13.780;2022-10-29T06:21:10;27.33;;;11.87;;
572;SDS011;271;51.114;13.780;2022-10-29T06:23:37;27.63;;;11.10;;
572;SDS011;271;51.114;13.780;2022-10-29T06:26:04;29.90;;;11.53;;
572;SDS011;271;51.114;13.780;2022-10-29T06:28:31;28.30;;;11.93;;
572;SDS011;271;51.114;13.780;2022-10-29T06:30:58;27.30;;;12.00;;
572;SDS011;271;51.114;13.780;2022-10-29T06:33:26;26.40;;;11.30;;
572;SDS011;271;51.114;13.780;2022-10-29T06:35:57;29.43;;;11.67;;
572;SDS011;271;51.114;13.780;2022-10-29T06:38:25;28.73;;;11.20;;
572;SDS011;271;51.114;13.780;2022-10-29T06:40:52;28.77;;;13.20;;
572;SDS011;271;51.114;13.780;2022-10-29T06:43:19;29.00;;;11.23;;
572;SDS011;271;51.114;13.780;2022-10-29T06:45:47;29.43;;;11.43;;
572;SDS011;271;51.114;13.780;2022-10-29T06:48:14;27.10;;;11.60;;
572;SDS011;271;51.114;13.780;2022-10-29T06:50:42;27.17;;;10.80;;
572;SDS011;271;51.114;13.780;2022-10-29T06:53:12;29.43;;;11.57;;
572;SDS011;271;51.114;13.780;2022-10-29T06:55:40;27.90;;;11.03;;
572;SDS011;271;51.114;13.780;2022-10-29T06:58:09;27.37;;;11.33;;
572;SDS011;271;51.114;13.780;2022-10-29T07:00:38;30.90;;;12.07;;
572;SDS011;271;51.114;13.780;2022-10-29T07:03:07;26.93;;;10.87;;
572;SDS011;271;51.114;13.780;2022-10-29T07:05:37;28.93;;;13.83;;
572;SDS011;271;51.114;13.780;2022-10-29T07:08:04;26.97;;;12.30;;
572;SDS011;271;51.114;13.780;2022-10-29T07:10:33;29.10;;;12.50;;
572;SDS011;271;51.114;13.780;2022-10-29T07:13:01;26.00;;;10.80;;
572;SDS011;271;51.114;13.780;2022-10-29T07:15:28;27.40;;;11.83;;
572;SDS011;271;51.114;13.780;2022-10-29T07:17:57;28.47;;;13.10;;
572;SDS011;271;51.114;13.780;2022-10-29T07:20:26;32.10;;;13.63;;
572;SDS011;271;51.114;13.780;2022-10-29T07:22:53;28.30;;;11.13;;
572;SDS011;271;51.114;13.780;2022-10-29T07:25:22;32.63;;;15.57;;
572;SDS011;271;51.114;13.780;2022-10-29T07:27:51;29.00;;;13.73;;
572;SDS011;271;51.114;13.780;2022-10-29T07:30:18;34.20;;;16.00;;
572;SDS011;271;51.114;13.780;2022-10-29T07:32:46;32.30;;;17.70;;
572;SDS011;271;51.114;13.780;2022-10-29T07:35:13;35.30;;;16.07;;
572;SDS011;271;51.114;13.780;2022-10-29T07:37:40;30.53;;;14.33;;
572;SDS011;271;51.114;13.780;2022-10-29T07:40:08;34.17;;;16.43;;
572;SDS011;271;51.114;13.780;2022-10-29T07:42:36;32.70;;;15.93;;
572;SDS011;271;51.114;13.780;2022-10-29T07:45:05;33.77;;;16.57;;
572;SDS011;271;51.114;13.780;2022-10-29T07:47:32;42.40;;;23.20;;
572;SDS011;271;51.114;13.780;2022-10-29T07:50:00;45.77;;;22.60;;
572;SDS011;271;51.114;13.780;2022-10-29T07:52:27;33.40;;;16.57;;
572;SDS011;271;51.114;13.780;2022-10-29T07:54:54;32.63;;;15.70;;
572;SDS011;271;51.114;13.780;2022-10-29T07:57:21;32.97;;;16.30;;
572;SDS011;271;51.114;13.780;2022-10-29T07:59:48;33.53;;;16.90;;
572;SDS011;271;51.114;13.780;2022-10-29T08:02:17;36.13;;;18.00;;
572;SDS011;271;51.114;13.780;2022-10-29T08:04:45;34.40;;;17.30;;
572;SDS011;271;51.114;13.780;2022-10-29T08:07:12;30.83;;;15.07;;
572;SDS011;271;51.114;13.780;2022-10-29T08:09:39;34.20;;;15.27;;
572;SDS011;271;51.114;13.780;2022-10-29T08:12:07;30.30;;;15.40;;
572;SDS011;271;51.114;13.780;2022-10-29T08:14:35;31.97;;;14.87;;
572;SDS011;271;51.114;13.780;2022-10-29T08:17:02;27.20;;;12.40;;
572;SDS011;271;51.114;13.780;2022-10-29T08:19:31;34.53;;;13.83;;
572;SDS011;271;51.114;13.780;2022-10-29T08:21:58;27.00;;;12.57;;
572;SDS011;271;51.114;13.780;2022-10-29T08:24:25;28.23;;;12.93;;
572;SDS011;271;51.114;13.780;2022-10-29T08:26:52;30.40;;;13.40;;
572;SDS011;271;51.114;13.780;2022-10-29T08:29:20;28.23;;;13.03;;
572;SDS011;271;51.114;13.780;2022-10-29T08:31:47;26.37;;;11.93;;
572;SDS011;271;51.114;13.780;2022-10-29T08:34:14;27.70;;;13.30;;
572;SDS011;271;51.114;13.780;2022-10-29T08:36:43;26.77;;;11.27;;
572;SDS011;271;51.114;13.780;2022-10-29T08:39:10;25.97;;;11.43;;
572;SDS011;271;51.114;13.780;2022-10-29T08:41:42;26.30;;;11.53;;
572;SDS011;271;51.114;13.780;2022-10-29T08:44:23;24.97;;;11.20;;
572;SDS011;271;51.114;13.780;2022-10-29T08:47:12;25.13;;;10.73;;
572;SDS011;271;51.114;13.780;2022-10-29T08:49:44;25.40;;;11.30;;
572;SDS011;271;51.114;13.780;2022-10-29T08:52:18;26.33;;;11.17;;
572;SDS011;271;51.114;13.780;2022-10-29T08:54:51;23.13;;;9.97;;
572;SDS011;271;51.114;13.780;2022-10-29T08:57:30;23.47;;;9.57;;
572;SDS011;271;51.114;13.780;2022-10-29T09:00:03;22.60;;;9.77;;
572;SDS011;271;51.114;13.780;2022-10-29T09:02:32;23.03;;;9.37;;
572;SDS011;271;51.114;13.780;2022-10-29T09:05:00;22.50;;;9.00;;
572;SDS011;271;51.114;13.780;2022-10-29T09:07:33;23.40;;;8.77;;
572;SDS011;271;51.114;13.780;2022-10-29T09:10:07;23.20;;;9.37;;
572;SDS011;271;51.114;13.780;2022-10-29T09:12:51;20.57;;;8.43;;
572;SDS011;271;51.114;13.780;2022-10-29T09:15:30;21.87;;;9.40;;
572;SDS011;271;51.114;13.780;2022-10-29T09:18:19;24.40;;;9.90;;
572;SDS011;271;51.114;13.780;2022-10-29T09:21:00;22.00;;;9.17;;
572;SDS011;271;51.114;13.780;2022-10-29T09:23:44;25.33;;;9.23;;
572;SDS011;271;51.114;13.780;2022-10-29T09:26:21;24.00;;;9.87;;
572;SDS011;271;51.114;13.780;2022-10-29T09:29:04;22.70;;;8.87;;
572;SDS011;271;51.114;13.780;2022-10-29T09:31:47;22.10;;;8.80;;
572;SDS011;271;51.114;13.780;2022-10-29T09:34:24;23.30;;;9.37;;
572;SDS011;271;51.114;13.780;2022-10-29T09:36:55;25.43;;;9.90;;
572;SDS011;271;51.114;13.780;2022-10-29T09:39:26;24.00;;;9.23;;
572;SDS011;271;51.114;13.780;2022-10-29T09:41:57;22.43;;;9.73;;
572;SDS011;271;51.114;13.780;2022-10-29T09:44:29;24.23;;;10.50;;
572;SDS011;271;51.114;13.780;2022-10-29T09:47:06;23.47;;;9.13;;
572;SDS011;271;51.114;13.780;2022-10-29T09:49:45;22.10;;;9.40;;
572;SDS011;271;51.114;13.780;2022-10-29T09:52:25;24.30;;;9.43;;
572;SDS011;271;51.114;13.780;2022-10-29T09:54:57;26.07;;;9.40;;
572;SDS011;271;51.114;13.780;2022-10-29T09:57:27;25.43;;;9.23;;
572;SDS011;271;51.114;13.780;2022-10-29T09:59:56;22.93;;;8.63;;
572;SDS011;271;51.114;13.780;2022-10-29T10:02:34;21.93;;;8.53;;
572;SDS011;271;51.114;13.780;2022-10-29T10:05:24;21.47;;;7.87;;
572;SDS011;271;51.114;13.780;2022-10-29T10:08:05;24.70;;;10.60;;
572;SDS011;271;51.114;13.780;2022-10-29T10:10:37;22.63;;;10.70;;
572;SDS011;271;51.114;13.780;2022-10-29T10:13:16;22.00;;;9.63;;
572;SDS011;271;51.114;13.780;2022-10-29T10:15:48;23.20;;;7.77;;
572;SDS011;271;51.114;13.780;2022-10-29T10:18:18;21.97;;;7.83;;
572;SDS011;271;51.114;13.780;2022-10-29T10:20:47;20.17;;;8.13;;
572;SDS011;271;51.114;13.780;2022-10-29T10:23:26;22.30;;;8.70;;
572;SDS011;271;51.114;13.780;2022-10-29T10:25:56;25.53;;;9.20;;
572;SDS011;271;51.114;13.780;2022-10-29T10:28:25;23.73;;;8.43;;
572;SDS011;271;51.114;13.780;2022-10-29T10:31:08;22.27;;;8.40;;
572;SDS011;271;51.114;13.780;2022-10-29T10:33:43;23.37;;;8.30;;
572;SDS011;271;51.114;13.780;2022-10-29T10:36:15;25.13;;;9.07;;
572;SDS011;271;51.114;13.780;2022-10-29T10:38:44;23.97;;;8.90;;
572;SDS011;271;51.114;13.780;2022-10-29T10:41:20;22.50;;;8.30;;
572;SDS011;271;51.114;13.780;2022-10-29T10:43:49;23.00;;;8.47;;
572;SDS011;271;51.114;13.780;2022-10-29T10:46:18;22.70;;;9.30;;
572;SDS011;271;51.114;13.780;2022-10-29T10:48:58;25.37;;;10.27;;
572;SDS011;271;51.114;13.780;2022-10-29T10:51:29;21.43;;;8.30;;
572;SDS011;271;51.114;13.780;2022-10-29T10:53:58;24.97;;;9.00;;
572;SDS011;271;51.114;13.780;2022-10-29T10:56:30;20.30;;;8.07;;
572;SDS011;271;51.114;13.780;2022-10-29T10:59:01;23.90;;;9.40;;
572;SDS011;271;51.114;13.780;2022-10-29T11:01:34;23.90;;;9.90;;
572;SDS011;271;51.114;13.780;2022-10-29T11:04:12;23.03;;;9.00;;
572;SDS011;271;51.114;13.780;2022-10-29T11:06:44;23.37;;;8.53;;
572;SDS011;271;51.114;13.780;2022-10-29T11:09:17;23.03;;;8.90;;
572;SDS011;271;51.114;13.780;2022-10-29T11:11:50;22.17;;;8.33;;
572;SDS011;271;51.114;13.780;2022-10-29T11:14:25;24.10;;;9.07;;
572;SDS011;271;51.114;13.780;2022-10-29T11:16:57;24.50;;;9.53;;
572;SDS011;271;51.114;13.780;2022-10-29T11:19:29;21.87;;;9.60;;
572;SDS011;271;51.114;13.780;2022-10-29T11:22:04;22.07;;;8.57;;
572;SDS011;271;51.114;13.780;2022-10-29T11:24:40;23.90;;;9.20;;
572;SDS011;271;51.114;13.780;2022-10-29T11:27:25;24.90;;;9.50;;
572;SDS011;271;51.114;13.780;2022-10-29T11:30:00;23.63;;;9.13;;
572;SDS011;271;51.114;13.780;2022-10-29T11:32:37;22.40;;;9.00;;
572;SDS011;271;51.114;13.780;2022-10-29T11:35:14;23.70;;;9.27;;
572;SDS011;271;51.114;13.780;2022-10-29T11:37:46;24.30;;;10.10;;
572;SDS011;271;51.114;13.780;2022-10-29T11:40:17;21.73;;;8.10;;
572;SDS011;271;51.114;13.780;2022-10-29T11:42:49;23.00;;;7.30;;
572;SDS011;271;51.114;13.780;2022-10-29T11:45:18;22.23;;;7.57;;
572;SDS011;271;51.114;13.780;2022-10-29T11:48:01;22.37;;;7.70;;
572;SDS011;271;51.114;13.780;2022-10-29T11:50:39;23.43;;;8.07;;
572;SDS011;271;51.114;13.780;2022-10-29T11:53:17;21.93;;;7.00;;
572;SDS011;271;51.114;13.780;2022-10-29T11:55:54;20.73;;;6.43;;
572;SDS011;271;51.114;13.780;2022-10-29T11:58:35;19.43;;;6.27;;
572;SDS011;271;51.114;13.780;2022-10-29T12:01:09;24.00;;;6.63;;
572;SDS011;271;51.114;13.780;2022-10-29T12:03:53;22.37;;;7.03;;
572;SDS011;271;51.114;13.780;2022-10-29T12:06:42;21.40;;;8.00;;
572;SDS011;271;51.114;13.780;2022-10-29T12:12:38;22.43;;;6.87;;
572;SDS011;271;51.114;13.780;2022-10-29T12:15:17;22.23;;;7.33;;
572;SDS011;271;51.114;13.780;2022-10-29T12:17:51;22.80;;;7.93;;
572;SDS011;271;51.114;13.780;2022-10-29T12:20:28;22.63;;;7.47;;
572;SDS011;271;51.114;13.780;2022-10-29T12:23:06;24.50;;;8.20;;
572;SDS011;271;51.114;13.780;2022-10-29T12:28:48;22.80;;;8.37;;
572;SDS011;271;51.114;13.780;2022-10-29T12:31:25;20.57;;;8.00;;
572;SDS011;271;51.114;13.780;2022-10-29T12:33:58;24.50;;;9.03;;
572;SDS011;271;51.114;13.780;2022-10-29T12:36:34;26.60;;;9.77;;
572;SDS011;271;51.114;13.780;2022-10-29T12:39:10;22.83;;;9.60;;
572;SDS011;271;51.114;13.780;2022-10-29T12:41:53;25.80;;;10.63;;
572;SDS011;271;51.114;13.780;2022-10-29T12:44:27;26.50;;;10.90;;
572;SDS011;271;51.114;13.780;2022-10-29T12:47:07;26.60;;;10.67;;
572;SDS011;271;51.114;13.780;2022-10-29T12:49:43;23.90;;;10.23;;
572;SDS011;271;51.114;13.780;2022-10-29T12:52:18;24.77;;;10.70;;
572;SDS011;271;51.114;13.780;2022-10-29T12:54:50;26.87;;;10.37;;
572;SDS011;271;51.114;13.780;2022-10-29T12:57:22;23.93;;;10.33;;
572;SDS011;271;51.114;13.780;2022-10-29T13:03:00;23.53;;;11.00;;
572;SDS011;271;51.114;13.780;2022-10-29T13:05:34;26.23;;;10.63;;
572;SDS011;271;51.114;13.780;2022-10-29T13:08:09;26.37;;;11.07;;
572;SDS011;271;51.114;13.780;2022-10-29T13:10:54;23.60;;;11.10;;
572;SDS011;271;51.114;13.780;2022-10-29T13:13:24;29.50;;;11.80;;
572;SDS011;271;51.114;13.780;2022-10-29T13:16:18;25.23;;;11.80;;
572;SDS011;271;51.114;13.780;2022-10-29T13:21:59;25.80;;;12.13;;
572;SDS011;271;51.114;13.780;2022-10-29T13:24:31;27.40;;;11.17;;
572;SDS011;271;51.114;13.780;2022-10-29T13:27:04;25.47;;;11.27;;
572;SDS011;271;51.114;13.780;2022-10-29T13:30:17;25.67;;;11.50;;
572;SDS011;271;51.114;13.780;2022-10-29T13:32:50;24.97;;;10.60;;
572;SDS011;271;51.114;13.780;2022-10-29T13:38:38;25.23;;;11.27;;
572;SDS011;271;51.114;13.780;2022-10-29T13:41:08;26.77;;;12.10;;
572;SDS011;271;51.114;13.780;2022-10-29T13:43:38;25.70;;;11.13;;
572;SDS011;271;51.114;13.780;2022-10-29T13:49:08;27.77;;;12.17;;
572;SDS011;271;51.114;13.780;2022-10-29T13:51:44;26.03;;;12.10;;
572;SDS011;271;51.114;13.780;2022-10-29T13:54:18;32.17;;;12.40;;
572;SDS011;271;51.114;13.780;2022-10-29T13:56:52;26.63;;;11.87;;
572;SDS011;271;51.114;13.780;2022-10-29T13:59:26;27.30;;;12.90;;
572;SDS011;271;51.114;13.780;2022-10-29T14:02:03;26.30;;;12.40;;
572;SDS011;271;51.114;13.780;2022-10-29T14:04:40;25.43;;;12.63;;
572;SDS011;271;51.114;13.780;2022-10-29T14:07:15;28.33;;;13.20;;
572;SDS011;271;51.114;13.780;2022-10-29T14:09:45;28.60;;;13.67;;
572;SDS011;271;51.114;13.780;2022-10-29T14:12:17;28.73;;;13.67;;
572;SDS011;271;51.114;13.780;2022-10-29T14:14:50;29.30;;;12.23;;
572;SDS011;271;51.114;13.780;2022-10-29T14:17:21;26.60;;;13.20;;
572;SDS011;271;51.114;13.780;2022-10-29T14:19:49;28.57;;;14.03;;
572;SDS011;271;51.114;13.780;2022-10-29T14:22:22;31.43;;;12.93;;
572;SDS011;271;51.114;13.780;2022-10-29T14:25:02;28.23;;;13.43;;
572;SDS011;271;51.114;13.780;2022-10-29T14:27:45;30.00;;;13.60;;
572;SDS011;271;51.114;13.780;2022-10-29T14:30:13;26.23;;;13.50;;
572;SDS011;271;51.114;13.780;2022-10-29T14:32:44;27.17;;;13.60;;
572;SDS011;271;51.114;13.780;2022-10-29T14:35:14;29.00;;;14.30;;
572;SDS011;271;51.114;13.780;2022-10-29T14:37:43;26.70;;;12.63;;
572;SDS011;271;51.114;13.780;2022-10-29T14:40:17;26.73;;;13.70;;
572;SDS011;271;51.114;13.780;2022-10-29T14:42:47;30.93;;;13.13;;
572;SDS011;271;51.114;13.780;2022-10-29T14:45:18;26.77;;;11.77;;
572;SDS011;271;51.114;13.780;2022-10-29T14:47:49;26.37;;;12.77;;
572;SDS011;271;51.114;13.780;2022-10-29T14:50:20;30.93;;;13.33;;
572;SDS011;271;51.114;13.780;2022-10-29T14:52:51;30.23;;;12.87;;
572;SDS011;271;51.114;13.780;2022-10-29T14:55:21;29.93;;;14.30;;
572;SDS011;271;51.114;13.780;2022-10-29T14:57:52;25.37;;;12.63;;
572;SDS011;271;51.114;13.780;2022-10-29T15:00:28;27.40;;;13.40;;
572;SDS011;271;51.114;13.780;2022-10-29T15:02:56;27.43;;;13.50;;
572;SDS011;271;51.114;13.780;2022-10-29T15:05:25;32.17;;;13.30;;
572;SDS011;271;51.114;13.780;2022-10-29T15:08:11;31.00;;;13.17;;
572;SDS011;271;51.114;13.780;2022-10-29T15:10:44;27.87;;;12.57;;
572;SDS011;271;51.114;13.780;2022-10-29T15:13:13;27.03;;;12.63;;
572;SDS011;271;51.114;13.780;2022-10-29T15:15:50;31.77;;;13.90;;
572;SDS011;271;51.114;13.780;2022-10-29T15:18:19;26.57;;;12.23;;
572;SDS011;271;51.114;13.780;2022-10-29T15:20:48;32.13;;;15.57;;
572;SDS011;271;51.114;13.780;2022-10-29T15:23:18;29.73;;;14.30;;
572;SDS011;271;51.114;13.780;2022-10-29T15:25:49;29.90;;;14.73;;
572;SDS011;271;51.114;13.780;2022-10-29T15:28:21;29.33;;;13.20;;
572;SDS011;271;51.114;13.780;2022-10-29T15:30:51;27.20;;;13.43;;
572;SDS011;271;51.114;13.780;2022-10-29T15:33:20;29.60;;;14.33;;
572;SDS011;271;51.114;13.780;2022-10-29T15:35:52;30.20;;;14.57;;
572;SDS011;271;51.114;13.780;2022-10-29T15:46:02;31.77;;;14.10;;
572;SDS011;271;51.114;13.780;2022-10-29T15:48:37;31.57;;;12.80;;
572;SDS011;271;51.114;13.780;2022-10-29T15:58:54;28.20;;;13.80;;
572;SDS011;271;51.114;13.780;2022-10-29T16:01:34;29.47;;;14.30;;
572;SDS011;271;51.114;13.780;2022-10-29T16:04:01;30.37;;;13.73;;
572;SDS011;271;51.114;13.780;2022-10-29T16:06:28;31.80;;;13.27;;
572;SDS011;271;51.114;13.780;2022-10-29T16:08:56;31.07;;;13.83;;
572;SDS011;271;51.114;13.780;2022-10-29T16:11:25;29.10;;;13.67;;
572;SDS011;271;51.114;13.780;2022-10-29T16:13:54;30.10;;;15.03;;